sensor_id;sensor_type;location;lat;lon;timestamp;temperature;humidity
71039;SHT30;58692;43.212;27.908;2023-11-19T00:01:08;2.92;92.72
71039;SHT30;58692;43.212;27.908;2023-11-19T00:03:33;2.92;92.39
71039;SHT30;58692;43.212;27.908;2023-11-19T00:06:01;2.95;92.37
71039;SHT30;58692;43.212;27.908;2023-11-19T00:08:26;2.93;92.30
71039;SHT30;58692;43.212;27.908;2023-11-19T00:10:52;2.93;92.34
71039;SHT30;58692;43.212;27.908;2023-11-19T00:13:18;2.92;92.94
71039;SHT30;58692;43.212;27.908;2023-11-19T00:15:43;2.92;92.49
71039;SHT30;58692;43.212;27.908;2023-11-19T00:18:10;2.92;92.44
71039;SHT30;58692;43.212;27.908;2023-11-19T00:20:36;2.98;92.83
71039;SHT30;58692;43.212;27.908;2023-11-19T00:23:01;2.96;92.66
71039;SHT30;58692;43.212;27.908;2023-11-19T00:25:27;2.98;92.23
71039;SHT30;58692;43.212;27.908;2023-11-19T00:27:53;2.98;92.15
71039;SHT30;58692;43.212;27.908;2023-11-19T00:30:19;2.96;92.32
71039;SHT30;58692;43.212;27.908;2023-11-19T00:32:44;2.99;91.85
71039;SHT30;58692;43.212;27.908;2023-11-19T00:35:11;2.98;92.20
71039;SHT30;58692;43.212;27.908;2023-11-19T00:37:36;2.98;92.43
71039;SHT30;58692;43.212;27.908;2023-11-19T00:40:02;2.96;92.71
71039;SHT30;58692;43.212;27.908;2023-11-19T00:42:30;2.98;92.54
71039;SHT30;58692;43.212;27.908;2023-11-19T00:44:56;3.00;92.04
71039;SHT30;58692;43.212;27.908;2023-11-19T00:47:22;3.00;91.98
71039;SHT30;58692;43.212;27.908;2023-11-19T00:49:48;3.02;92.16
71039;SHT30;58692;43.212;27.908;2023-11-19T00:52:16;3.03;92.64
71039;SHT30;58692;43.212;27.908;2023-11-19T00:54:42;3.05;92.07
71039;SHT30;58692;43.212;27.908;2023-11-19T00:57:07;3.05;92.12
71039;SHT30;58692;43.212;27.908;2023-11-19T00:59:33;3.09;91.67
71039;SHT30;58692;43.212;27.908;2023-11-19T01:01:58;3.09;91.61
71039;SHT30;58692;43.212;27.908;2023-11-19T01:04:29;3.12;91.88
71039;SHT30;58692;43.212;27.908;2023-11-19T01:06:54;3.15;91.63
71039;SHT30;58692;43.212;27.908;2023-11-19T01:09:20;3.13;91.63
71039;SHT30;58692;43.212;27.908;2023-11-19T01:11:45;3.15;91.87
71039;SHT30;58692;43.212;27.908;2023-11-19T01:14:11;3.13;91.28
71039;SHT30;58692;43.212;27.908;2023-11-19T01:16:36;3.16;91.01
71039;SHT30;58692;43.212;27.908;2023-11-19T01:19:02;3.18;91.51
71039;SHT30;58692;43.212;27.908;2023-11-19T01:21:30;3.15;90.86
71039;SHT30;58692;43.212;27.908;2023-11-19T01:23:57;3.20;91.23
71039;SHT30;58692;43.212;27.908;2023-11-19T01:26:23;3.18;90.94
71039;SHT30;58692;43.212;27.908;2023-11-19T01:28:49;3.18;91.83
71039;SHT30;58692;43.212;27.908;2023-11-19T01:31:17;3.16;91.55
71039;SHT30;58692;43.212;27.908;2023-11-19T01:33:43;3.16;91.51
71039;SHT30;58692;43.212;27.908;2023-11-19T01:36:09;3.13;91.45
71039;SHT30;58692;43.212;27.908;2023-11-19T01:38:36;3.15;91.01
71039;SHT30;58692;43.212;27.908;2023-11-19T01:41:01;3.18;91.29
71039;SHT30;58692;43.212;27.908;2023-11-19T01:43:36;3.16;91.31
71039;SHT30;58692;43.212;27.908;2023-11-19T01:46:03;3.15;91.13
71039;SHT30;58692;43.212;27.908;2023-11-19T01:48:34;3.13;90.41
71039;SHT30;58692;43.212;27.908;2023-11-19T01:51:03;3.18;90.81
71039;SHT30;58692;43.212;27.908;2023-11-19T01:53:29;3.16;91.39
71039;SHT30;58692;43.212;27.908;2023-11-19T01:55:56;3.13;91.29
71039;SHT30;58692;43.212;27.908;2023-11-19T01:58:22;3.10;91.12
71039;SHT30;58692;43.212;27.908;2023-11-19T02:00:48;3.12;91.16
71039;SHT30;58692;43.212;27.908;2023-11-19T02:03:14;3.09;90.80
71039;SHT30;58692;43.212;27.908;2023-11-19T02:05:40;3.10;90.53
71039;SHT30;58692;43.212;27.908;2023-11-19T02:08:06;3.13;90.97
71039;SHT30;58692;43.212;27.908;2023-11-19T02:10:31;3.09;91.65
71039;SHT30;58692;43.212;27.908;2023-11-19T02:12:58;3.12;91.60
71039;SHT30;58692;43.212;27.908;2023-11-19T02:15:24;3.08;91.10
71039;SHT30;58692;43.212;27.908;2023-11-19T02:17:50;3.09;91.67
71039;SHT30;58692;43.212;27.908;2023-11-19T02:20:16;3.06;91.63
71039;SHT30;58692;43.212;27.908;2023-11-19T02:22:46;3.09;91.92
71039;SHT30;58692;43.212;27.908;2023-11-19T02:25:20;3.09;91.46
71039;SHT30;58692;43.212;27.908;2023-11-19T02:27:53;3.08;91.43
71039;SHT30;58692;43.212;27.908;2023-11-19T02:30:22;3.06;91.58
71039;SHT30;58692;43.212;27.908;2023-11-19T02:32:53;3.03;91.29
71039;SHT30;58692;43.212;27.908;2023-11-19T02:35:19;3.02;91.44
71039;SHT30;58692;43.212;27.908;2023-11-19T02:37:47;2.95;91.22
71039;SHT30;58692;43.212;27.908;2023-11-19T02:40:13;3.00;90.87
71039;SHT30;58692;43.212;27.908;2023-11-19T02:42:38;3.00;91.69
71039;SHT30;58692;43.212;27.908;2023-11-19T02:45:04;3.00;91.05
71039;SHT30;58692;43.212;27.908;2023-11-19T02:47:31;2.96;91.57
71039;SHT30;58692;43.212;27.908;2023-11-19T02:49:57;2.98;91.65
71039;SHT30;58692;43.212;27.908;2023-11-19T02:52:23;2.93;91.39
71039;SHT30;58692;43.212;27.908;2023-11-19T02:54:50;2.95;90.73
71039;SHT30;58692;43.212;27.908;2023-11-19T02:57:16;2.93;91.41
71039;SHT30;58692;43.212;27.908;2023-11-19T02:59:44;2.98;91.65
71039;SHT30;58692;43.212;27.908;2023-11-19T03:02:10;2.98;91.71
71039;SHT30;58692;43.212;27.908;2023-11-19T03:04:37;2.98;91.39
71039;SHT30;58692;43.212;27.908;2023-11-19T03:07:08;2.91;91.56
71039;SHT30;58692;43.212;27.908;2023-11-19T03:09:33;2.93;91.58
71039;SHT30;58692;43.212;27.908;2023-11-19T03:12:00;2.93;90.71
71039;SHT30;58692;43.212;27.908;2023-11-19T03:14:26;2.95;91.02
71039;SHT30;58692;43.212;27.908;2023-11-19T03:16:51;2.96;91.23
71039;SHT30;58692;43.212;27.908;2023-11-19T03:19:17;2.98;90.34
71039;SHT30;58692;43.212;27.908;2023-11-19T03:21:43;2.96;90.80
71039;SHT30;58692;43.212;27.908;2023-11-19T03:24:10;2.92;90.36
71039;SHT30;58692;43.212;27.908;2023-11-19T03:26:35;2.92;90.97
71039;SHT30;58692;43.212;27.908;2023-11-19T03:29:02;2.92;90.99
71039;SHT30;58692;43.212;27.908;2023-11-19T03:31:28;2.91;90.89
71039;SHT30;58692;43.212;27.908;2023-11-19T03:33:54;2.91;90.90
71039;SHT30;58692;43.212;27.908;2023-11-19T03:36:19;2.91;90.95
71039;SHT30;58692;43.212;27.908;2023-11-19T03:38:45;2.87;90.49
71039;SHT30;58692;43.212;27.908;2023-11-19T03:41:12;2.89;90.28
71039;SHT30;58692;43.212;27.908;2023-11-19T03:43:39;2.89;90.13
71039;SHT30;58692;43.212;27.908;2023-11-19T03:46:05;2.92;90.00
71039;SHT30;58692;43.212;27.908;2023-11-19T03:48:40;2.93;89.85
71039;SHT30;58692;43.212;27.908;2023-11-19T03:51:05;2.93;89.21
71039;SHT30;58692;43.212;27.908;2023-11-19T03:53:31;2.93;89.82
71039;SHT30;58692;43.212;27.908;2023-11-19T03:55:56;2.95;89.39
71039;SHT30;58692;43.212;27.908;2023-11-19T03:58:22;2.98;89.45
71039;SHT30;58692;43.212;27.908;2023-11-19T04:00:47;2.98;89.01
71039;SHT30;58692;43.212;27.908;2023-11-19T04:03:13;2.96;89.26
71039;SHT30;58692;43.212;27.908;2023-11-19T04:05:38;2.93;89.61
71039;SHT30;58692;43.212;27.908;2023-11-19T04:08:04;2.96;88.82
71039;SHT30;58692;43.212;27.908;2023-11-19T04:10:30;2.98;89.27
71039;SHT30;58692;43.212;27.908;2023-11-19T04:12:56;2.98;88.96
71039;SHT30;58692;43.212;27.908;2023-11-19T04:15:21;2.99;88.64
71039;SHT30;58692;43.212;27.908;2023-11-19T04:17:47;3.06;88.05
71039;SHT30;58692;43.212;27.908;2023-11-19T04:20:13;3.06;87.89
71039;SHT30;58692;43.212;27.908;2023-11-19T04:22:39;3.10;87.89
71039;SHT30;58692;43.212;27.908;2023-11-19T04:25:06;3.09;87.55
71039;SHT30;58692;43.212;27.908;2023-11-19T04:27:31;3.12;87.38
71039;SHT30;58692;43.212;27.908;2023-11-19T04:29:57;3.12;87.25
71039;SHT30;58692;43.212;27.908;2023-11-19T04:32:22;3.13;87.11
71039;SHT30;58692;43.212;27.908;2023-11-19T04:34:49;3.12;87.04
71039;SHT30;58692;43.212;27.908;2023-11-19T04:37:14;3.13;86.78
71039;SHT30;58692;43.212;27.908;2023-11-19T04:39:40;3.13;86.58
71039;SHT30;58692;43.212;27.908;2023-11-19T04:42:06;3.13;87.07
71039;SHT30;58692;43.212;27.908;2023-11-19T04:44:31;3.15;86.47
71039;SHT30;58692;43.212;27.908;2023-11-19T04:46:57;3.12;86.25
71039;SHT30;58692;43.212;27.908;2023-11-19T04:49:23;3.15;86.20
71039;SHT30;58692;43.212;27.908;2023-11-19T04:51:49;3.15;86.33
71039;SHT30;58692;43.212;27.908;2023-11-19T04:54:15;3.12;87.15
71039;SHT30;58692;43.212;27.908;2023-11-19T04:56:45;3.09;86.87
71039;SHT30;58692;43.212;27.908;2023-11-19T04:59:11;3.06;87.15
71039;SHT30;58692;43.212;27.908;2023-11-19T05:01:37;3.02;87.15
71039;SHT30;58692;43.212;27.908;2023-11-19T05:04:02;2.98;87.57
71039;SHT30;58692;43.212;27.908;2023-11-19T05:06:30;2.96;87.69
71039;SHT30;58692;43.212;27.908;2023-11-19T05:08:57;2.95;87.99
71039;SHT30;58692;43.212;27.908;2023-11-19T05:11:23;2.89;88.62
71039;SHT30;58692;43.212;27.908;2023-11-19T05:13:49;2.85;88.65
71039;SHT30;58692;43.212;27.908;2023-11-19T05:16:15;2.85;88.32
71039;SHT30;58692;43.212;27.908;2023-11-19T05:18:42;2.81;88.20
71039;SHT30;58692;43.212;27.908;2023-11-19T05:21:08;2.84;88.02
71039;SHT30;58692;43.212;27.908;2023-11-19T05:23:34;2.84;87.77
71039;SHT30;58692;43.212;27.908;2023-11-19T05:26:01;2.87;87.83
71039;SHT30;58692;43.212;27.908;2023-11-19T05:28:27;2.85;87.50
71039;SHT30;58692;43.212;27.908;2023-11-19T05:30:53;2.87;87.79
71039;SHT30;58692;43.212;27.908;2023-11-19T05:33:18;2.84;87.22
71039;SHT30;58692;43.212;27.908;2023-11-19T05:35:44;2.87;86.81
71039;SHT30;58692;43.212;27.908;2023-11-19T05:38:10;2.88;86.23
71039;SHT30;58692;43.212;27.908;2023-11-19T05:40:35;2.89;86.42
71039;SHT30;58692;43.212;27.908;2023-11-19T05:43:01;2.89;86.42
71039;SHT30;58692;43.212;27.908;2023-11-19T05:45:27;2.84;85.85
71039;SHT30;58692;43.212;27.908;2023-11-19T05:47:52;2.82;86.03
71039;SHT30;58692;43.212;27.908;2023-11-19T05:50:18;2.82;86.47
71039;SHT30;58692;43.212;27.908;2023-11-19T05:52:44;2.82;85.62
71039;SHT30;58692;43.212;27.908;2023-11-19T05:55:10;2.81;85.25
71039;SHT30;58692;43.212;27.908;2023-11-19T05:57:37;2.84;85.21
71039;SHT30;58692;43.212;27.908;2023-11-19T06:00:03;2.81;84.97
71039;SHT30;58692;43.212;27.908;2023-11-19T06:02:32;2.78;85.24
71039;SHT30;58692;43.212;27.908;2023-11-19T06:04:58;2.78;84.58
71039;SHT30;58692;43.212;27.908;2023-11-19T06:07:23;2.77;84.75
71039;SHT30;58692;43.212;27.908;2023-11-19T06:09:50;2.75;84.58
71039;SHT30;58692;43.212;27.908;2023-11-19T06:12:17;2.72;84.46
71039;SHT30;58692;43.212;27.908;2023-11-19T06:14:43;2.75;84.63
71039;SHT30;58692;43.212;27.908;2023-11-19T06:17:08;2.78;84.19
71039;SHT30;58692;43.212;27.908;2023-11-19T06:19:36;2.74;84.67
71039;SHT30;58692;43.212;27.908;2023-11-19T06:22:02;2.75;84.10
71039;SHT30;58692;43.212;27.908;2023-11-19T06:24:28;2.72;83.85
71039;SHT30;58692;43.212;27.908;2023-11-19T06:26:53;2.62;83.74
71039;SHT30;58692;43.212;27.908;2023-11-19T06:29:19;2.64;83.36
71039;SHT30;58692;43.212;27.908;2023-11-19T06:31:45;2.65;83.63
71039;SHT30;58692;43.212;27.908;2023-11-19T06:34:12;2.61;83.25
71039;SHT30;58692;43.212;27.908;2023-11-19T06:36:37;2.62;83.30
71039;SHT30;58692;43.212;27.908;2023-11-19T06:39:03;2.62;83.23
71039;SHT30;58692;43.212;27.908;2023-11-19T06:41:29;2.59;83.07
71039;SHT30;58692;43.212;27.908;2023-11-19T06:43:55;2.65;82.67
71039;SHT30;58692;43.212;27.908;2023-11-19T06:46:20;2.58;82.18
71039;SHT30;58692;43.212;27.908;2023-11-19T06:48:46;2.59;82.05
71039;SHT30;58692;43.212;27.908;2023-11-19T06:51:12;2.65;82.39
71039;SHT30;58692;43.212;27.908;2023-11-19T06:53:38;2.62;81.68
71039;SHT30;58692;43.212;27.908;2023-11-19T06:56:06;2.66;82.00
71039;SHT30;58692;43.212;27.908;2023-11-19T06:58:36;2.68;82.12
71039;SHT30;58692;43.212;27.908;2023-11-19T07:01:02;2.66;81.63
71039;SHT30;58692;43.212;27.908;2023-11-19T07:03:27;2.65;82.33
71039;SHT30;58692;43.212;27.908;2023-11-19T07:05:53;2.69;82.00
71039;SHT30;58692;43.212;27.908;2023-11-19T07:08:19;2.65;81.91
71039;SHT30;58692;43.212;27.908;2023-11-19T07:10:44;2.62;82.37
71039;SHT30;58692;43.212;27.908;2023-11-19T07:13:12;2.59;81.75
71039;SHT30;58692;43.212;27.908;2023-11-19T07:15:38;2.61;82.09
71039;SHT30;58692;43.212;27.908;2023-11-19T07:18:03;2.61;82.64
71039;SHT30;58692;43.212;27.908;2023-11-19T07:20:29;2.65;82.94
71039;SHT30;58692;43.212;27.908;2023-11-19T07:22:54;2.61;82.84
71039;SHT30;58692;43.212;27.908;2023-11-19T07:25:22;2.62;83.14
71039;SHT30;58692;43.212;27.908;2023-11-19T07:27:48;2.59;82.97
71039;SHT30;58692;43.212;27.908;2023-11-19T07:30:14;2.65;83.08
71039;SHT30;58692;43.212;27.908;2023-11-19T07:32:39;2.62;82.70
71039;SHT30;58692;43.212;27.908;2023-11-19T07:35:05;2.64;82.95
71039;SHT30;58692;43.212;27.908;2023-11-19T07:37:31;2.65;83.07
71039;SHT30;58692;43.212;27.908;2023-11-19T07:39:57;2.68;82.42
71039;SHT30;58692;43.212;27.908;2023-11-19T07:42:22;2.68;82.85
71039;SHT30;58692;43.212;27.908;2023-11-19T07:44:49;2.71;83.29
71039;SHT30;58692;43.212;27.908;2023-11-19T07:47:14;2.74;83.17
71039;SHT30;58692;43.212;27.908;2023-11-19T07:49:40;2.75;82.80
71039;SHT30;58692;43.212;27.908;2023-11-19T07:52:05;2.71;82.71
71039;SHT30;58692;43.212;27.908;2023-11-19T07:54:32;2.68;83.03
71039;SHT30;58692;43.212;27.908;2023-11-19T07:56:57;2.69;82.78
71039;SHT30;58692;43.212;27.908;2023-11-19T07:59:23;2.64;82.97
71039;SHT30;58692;43.212;27.908;2023-11-19T08:01:48;2.68;83.13
71039;SHT30;58692;43.212;27.908;2023-11-19T08:04:14;2.68;82.69
71039;SHT30;58692;43.212;27.908;2023-11-19T08:06:40;2.68;82.62
71039;SHT30;58692;43.212;27.908;2023-11-19T08:09:05;2.65;83.21
71039;SHT30;58692;43.212;27.908;2023-11-19T08:11:32;2.64;82.74
71039;SHT30;58692;43.212;27.908;2023-11-19T08:13:57;2.64;82.51
71039;SHT30;58692;43.212;27.908;2023-11-19T08:16:23;2.62;82.70
71039;SHT30;58692;43.212;27.908;2023-11-19T08:18:48;2.62;82.09
71039;SHT30;58692;43.212;27.908;2023-11-19T08:21:14;2.62;82.33
71039;SHT30;58692;43.212;27.908;2023-11-19T08:23:40;2.66;82.62
71039;SHT30;58692;43.212;27.908;2023-11-19T08:26:06;2.69;82.54
71039;SHT30;58692;43.212;27.908;2023-11-19T08:28:31;2.68;82.62
71039;SHT30;58692;43.212;27.908;2023-11-19T08:30:59;2.66;82.60
71039;SHT30;58692;43.212;27.908;2023-11-19T08:33:26;2.71;82.50
71039;SHT30;58692;43.212;27.908;2023-11-19T08:35:51;2.69;82.14
71039;SHT30;58692;43.212;27.908;2023-11-19T08:38:17;2.72;82.58
71039;SHT30;58692;43.212;27.908;2023-11-19T08:40:42;2.75;82.50
71039;SHT30;58692;43.212;27.908;2023-11-19T08:43:08;2.74;82.32
71039;SHT30;58692;43.212;27.908;2023-11-19T08:45:33;2.79;82.80
71039;SHT30;58692;43.212;27.908;2023-11-19T08:47:59;2.79;81.66
71039;SHT30;58692;43.212;27.908;2023-11-19T08:50:24;2.78;81.55
71039;SHT30;58692;43.212;27.908;2023-11-19T08:52:50;2.78;81.76
71039;SHT30;58692;43.212;27.908;2023-11-19T08:55:15;2.84;82.33
71039;SHT30;58692;43.212;27.908;2023-11-19T08:57:42;2.88;82.64
71039;SHT30;58692;43.212;27.908;2023-11-19T09:00:07;2.85;81.78
71039;SHT30;58692;43.212;27.908;2023-11-19T09:02:35;2.88;82.37
71039;SHT30;58692;43.212;27.908;2023-11-19T09:05:02;2.93;82.01
71039;SHT30;58692;43.212;27.908;2023-11-19T09:07:28;2.92;81.05
71039;SHT30;58692;43.212;27.908;2023-11-19T09:09:53;3.02;80.82
71039;SHT30;58692;43.212;27.908;2023-11-19T09:12:19;3.09;81.20
71039;SHT30;58692;43.212;27.908;2023-11-19T09:14:44;3.08;81.10
71039;SHT30;58692;43.212;27.908;2023-11-19T09:17:11;3.08;80.96
71039;SHT30;58692;43.212;27.908;2023-11-19T09:19:36;3.10;81.67
71039;SHT30;58692;43.212;27.908;2023-11-19T09:22:02;3.10;81.51
71039;SHT30;58692;43.212;27.908;2023-11-19T09:24:28;3.06;81.26
71039;SHT30;58692;43.212;27.908;2023-11-19T09:26:53;3.06;81.27
71039;SHT30;58692;43.212;27.908;2023-11-19T09:29:20;3.06;80.34
71039;SHT30;58692;43.212;27.908;2023-11-19T09:31:46;3.00;80.39
71039;SHT30;58692;43.212;27.908;2023-11-19T09:34:12;3.05;79.97
71039;SHT30;58692;43.212;27.908;2023-11-19T09:36:37;3.03;79.94
71039;SHT30;58692;43.212;27.908;2023-11-19T09:39:04;3.05;80.56
71039;SHT30;58692;43.212;27.908;2023-11-19T09:41:31;3.08;80.69
71039;SHT30;58692;43.212;27.908;2023-11-19T09:43:57;3.15;80.31
71039;SHT30;58692;43.212;27.908;2023-11-19T09:46:26;3.19;80.71
71039;SHT30;58692;43.212;27.908;2023-11-19T09:48:53;3.18;79.49
71039;SHT30;58692;43.212;27.908;2023-11-19T09:51:20;3.19;79.19
71039;SHT30;58692;43.212;27.908;2023-11-19T09:53:46;3.27;79.08
71039;SHT30;58692;43.212;27.908;2023-11-19T09:56:15;3.27;79.14
71039;SHT30;58692;43.212;27.908;2023-11-19T09:58:42;3.20;78.72
71039;SHT30;58692;43.212;27.908;2023-11-19T10:01:08;3.18;79.30
71039;SHT30;58692;43.212;27.908;2023-11-19T10:03:37;3.20;78.50
71039;SHT30;58692;43.212;27.908;2023-11-19T10:06:07;3.24;79.25
71039;SHT30;58692;43.212;27.908;2023-11-19T10:08:33;3.32;78.95
71039;SHT30;58692;43.212;27.908;2023-11-19T10:10:59;3.36;79.25
71039;SHT30;58692;43.212;27.908;2023-11-19T10:13:27;3.36;78.55
71039;SHT30;58692;43.212;27.908;2023-11-19T10:15:53;3.42;78.99
71039;SHT30;58692;43.212;27.908;2023-11-19T10:18:18;3.43;78.27
71039;SHT30;58692;43.212;27.908;2023-11-19T10:20:49;3.74;78.39
71039;SHT30;58692;43.212;27.908;2023-11-19T10:23:14;4.65;76.42
71039;SHT30;58692;43.212;27.908;2023-11-19T10:25:40;4.46;75.70
71039;SHT30;58692;43.212;27.908;2023-11-19T10:28:06;4.26;75.80
71039;SHT30;58692;43.212;27.908;2023-11-19T10:30:31;4.16;76.82
71039;SHT30;58692;43.212;27.908;2023-11-19T10:33:06;4.29;76.19
71039;SHT30;58692;43.212;27.908;2023-11-19T10:35:35;4.05;75.97
71039;SHT30;58692;43.212;27.908;2023-11-19T10:38:13;3.95;76.40
71039;SHT30;58692;43.212;27.908;2023-11-19T10:40:39;3.93;76.35
71039;SHT30;58692;43.212;27.908;2023-11-19T10:43:05;4.02;75.79
71039;SHT30;58692;43.212;27.908;2023-11-19T10:45:33;4.02;75.10
71039;SHT30;58692;43.212;27.908;2023-11-19T10:47:59;4.14;74.49
71039;SHT30;58692;43.212;27.908;2023-11-19T10:50:26;4.21;73.85
71039;SHT30;58692;43.212;27.908;2023-11-19T10:52:57;4.22;72.89
71039;SHT30;58692;43.212;27.908;2023-11-19T10:55:28;4.31;73.06
71039;SHT30;58692;43.212;27.908;2023-11-19T10:58:03;4.41;72.27
71039;SHT30;58692;43.212;27.908;2023-11-19T11:00:30;4.83;71.42
71039;SHT30;58692;43.212;27.908;2023-11-19T11:03:01;4.72;71.71
71039;SHT30;58692;43.212;27.908;2023-11-19T11:05:30;4.62;72.63
71039;SHT30;58692;43.212;27.908;2023-11-19T11:07:58;4.57;73.04
71039;SHT30;58692;43.212;27.908;2023-11-19T11:10:26;5.00;71.63
71039;SHT30;58692;43.212;27.908;2023-11-19T11:12:52;5.31;71.82
71039;SHT30;58692;43.212;27.908;2023-11-19T11:15:27;4.86;72.20
71039;SHT30;58692;43.212;27.908;2023-11-19T11:17:59;4.77;73.08
71039;SHT30;58692;43.212;27.908;2023-11-19T11:20:28;4.65;73.43
71039;SHT30;58692;43.212;27.908;2023-11-19T11:23:15;5.13;72.46
71039;SHT30;58692;43.212;27.908;2023-11-19T11:28:26;6.23;68.47
71039;SHT30;58692;43.212;27.908;2023-11-19T11:36:07;7.15;66.49
71039;SHT30;58692;43.212;27.908;2023-11-19T11:38:37;7.22;65.90
71039;SHT30;58692;43.212;27.908;2023-11-19T11:41:17;6.88;67.24
71039;SHT30;58692;43.212;27.908;2023-11-19T11:43:46;7.15;66.20
71039;SHT30;58692;43.212;27.908;2023-11-19T11:46:56;7.11;66.00
71039;SHT30;58692;43.212;27.908;2023-11-19T11:49:13;6.91;67.50
71039;SHT30;58692;43.212;27.908;2023-11-19T11:51:57;7.19;66.79
71039;SHT30;58692;43.212;27.908;2023-11-19T11:57:08;7.02;68.41
71039;SHT30;58692;43.212;27.908;2023-11-19T11:59:45;7.23;69.02
71039;SHT30;58692;43.212;27.908;2023-11-19T12:02:13;7.46;68.14
71039;SHT30;58692;43.212;27.908;2023-11-19T12:04:40;7.55;68.61
71039;SHT30;58692;43.212;27.908;2023-11-19T12:07:12;7.32;68.97
71039;SHT30;58692;43.212;27.908;2023-11-19T12:09:40;7.70;68.57
71039;SHT30;58692;43.212;27.908;2023-11-19T12:12:18;7.49;68.13
71039;SHT30;58692;43.212;27.908;2023-11-19T12:15:01;7.63;68.89
71039;SHT30;58692;43.212;27.908;2023-11-19T12:17:38;7.42;68.81
71039;SHT30;58692;43.212;27.908;2023-11-19T12:20:06;7.33;68.49
71039;SHT30;58692;43.212;27.908;2023-11-19T12:22:37;7.36;69.32
71039;SHT30;58692;43.212;27.908;2023-11-19T12:25:06;7.26;69.60
71039;SHT30;58692;43.212;27.908;2023-11-19T12:27:33;7.18;69.73
71039;SHT30;58692;43.212;27.908;2023-11-19T12:30:02;7.12;70.87
71039;SHT30;58692;43.212;27.908;2023-11-19T12:32:39;7.30;70.53
71039;SHT30;58692;43.212;27.908;2023-11-19T12:35:06;7.09;70.40
71039;SHT30;58692;43.212;27.908;2023-11-19T12:37:32;6.41;72.46
71039;SHT30;58692;43.212;27.908;2023-11-19T12:39:58;5.99;74.21
71039;SHT30;58692;43.212;27.908;2023-11-19T12:42:36;6.24;73.56
71039;SHT30;58692;43.212;27.908;2023-11-19T12:45:04;5.86;74.68
71039;SHT30;58692;43.212;27.908;2023-11-19T12:47:30;5.62;75.42
71039;SHT30;58692;43.212;27.908;2023-11-19T12:49:56;5.47;76.33
71039;SHT30;58692;43.212;27.908;2023-11-19T12:52:22;5.38;76.79
71039;SHT30;58692;43.212;27.908;2023-11-19T12:54:49;5.34;77.43
71039;SHT30;58692;43.212;27.908;2023-11-19T12:57:15;5.24;76.81
71039;SHT30;58692;43.212;27.908;2023-11-19T12:59:41;5.34;77.64
71039;SHT30;58692;43.212;27.908;2023-11-19T13:02:06;5.37;77.65
71039;SHT30;58692;43.212;27.908;2023-11-19T13:04:33;5.24;77.22
71039;SHT30;58692;43.212;27.908;2023-11-19T13:06:59;5.32;77.31
71039;SHT30;58692;43.212;27.908;2023-11-19T13:09:27;5.32;76.77
71039;SHT30;58692;43.212;27.908;2023-11-19T13:11:54;5.34;77.36
71039;SHT30;58692;43.212;27.908;2023-11-19T13:14:21;5.38;77.43
71039;SHT30;58692;43.212;27.908;2023-11-19T13:16:47;5.38;77.14
71039;SHT30;58692;43.212;27.908;2023-11-19T13:19:13;5.28;77.23
71039;SHT30;58692;43.212;27.908;2023-11-19T13:21:40;5.30;77.84
71039;SHT30;58692;43.212;27.908;2023-11-19T13:24:06;5.28;77.89
71039;SHT30;58692;43.212;27.908;2023-11-19T13:26:32;5.26;77.35
71039;SHT30;58692;43.212;27.908;2023-11-19T13:28:57;5.13;78.26
71039;SHT30;58692;43.212;27.908;2023-11-19T13:31:23;5.10;78.58
71039;SHT30;58692;43.212;27.908;2023-11-19T13:33:48;5.16;78.83
71039;SHT30;58692;43.212;27.908;2023-11-19T13:36:16;5.16;79.00
71039;SHT30;58692;43.212;27.908;2023-11-19T13:38:42;5.13;78.53
71039;SHT30;58692;43.212;27.908;2023-11-19T13:41:09;5.04;79.65
71039;SHT30;58692;43.212;27.908;2023-11-19T13:43:36;5.03;79.58
71039;SHT30;58692;43.212;27.908;2023-11-19T13:46:02;5.01;79.81
71039;SHT30;58692;43.212;27.908;2023-11-19T13:48:28;5.03;79.59
71039;SHT30;58692;43.212;27.908;2023-11-19T13:50:55;5.00;79.20
71039;SHT30;58692;43.212;27.908;2023-11-19T13:53:21;4.99;79.64
71039;SHT30;58692;43.212;27.908;2023-11-19T13:55:46;4.93;80.25
71039;SHT30;58692;43.212;27.908;2023-11-19T13:58:13;4.94;80.12
71039;SHT30;58692;43.212;27.908;2023-11-19T14:00:38;4.87;80.15
71039;SHT30;58692;43.212;27.908;2023-11-19T14:03:04;4.89;80.17
71039;SHT30;58692;43.212;27.908;2023-11-19T14:05:30;4.91;79.85
71039;SHT30;58692;43.212;27.908;2023-11-19T14:07:56;4.94;80.15
71039;SHT30;58692;43.212;27.908;2023-11-19T14:10:23;4.89;80.33
71039;SHT30;58692;43.212;27.908;2023-11-19T14:12:48;4.87;80.21
71039;SHT30;58692;43.212;27.908;2023-11-19T14:15:15;4.87;80.71
71039;SHT30;58692;43.212;27.908;2023-11-19T14:17:43;4.87;80.77
71039;SHT30;58692;43.212;27.908;2023-11-19T14:20:09;4.79;80.62
71039;SHT30;58692;43.212;27.908;2023-11-19T14:22:40;4.76;80.56
71039;SHT30;58692;43.212;27.908;2023-11-19T14:25:06;4.75;80.98
71039;SHT30;58692;43.212;27.908;2023-11-19T14:27:36;4.69;80.96
71039;SHT30;58692;43.212;27.908;2023-11-19T14:30:05;4.65;81.15
71039;SHT30;58692;43.212;27.908;2023-11-19T14:32:31;4.63;81.53
71039;SHT30;58692;43.212;27.908;2023-11-19T14:34:57;4.59;81.73
71039;SHT30;58692;43.212;27.908;2023-11-19T14:37:22;4.59;81.34
71039;SHT30;58692;43.212;27.908;2023-11-19T14:39:48;4.55;81.53
71039;SHT30;58692;43.212;27.908;2023-11-19T14:42:16;4.60;81.70
71039;SHT30;58692;43.212;27.908;2023-11-19T14:44:42;4.42;81.76
71039;SHT30;58692;43.212;27.908;2023-11-19T14:47:08;4.38;81.95
71039;SHT30;58692;43.212;27.908;2023-11-19T14:49:35;4.45;82.18
71039;SHT30;58692;43.212;27.908;2023-11-19T14:52:01;4.42;82.22
71039;SHT30;58692;43.212;27.908;2023-11-19T14:54:26;4.42;82.08
71039;SHT30;58692;43.212;27.908;2023-11-19T14:56:52;4.34;82.29
71039;SHT30;58692;43.212;27.908;2023-11-19T14:59:17;4.34;82.40
71039;SHT30;58692;43.212;27.908;2023-11-19T15:01:45;4.35;82.08
71039;SHT30;58692;43.212;27.908;2023-11-19T15:04:10;4.32;82.56
71039;SHT30;58692;43.212;27.908;2023-11-19T15:06:37;4.31;82.30
71039;SHT30;58692;43.212;27.908;2023-11-19T15:09:03;4.29;82.24
71039;SHT30;58692;43.212;27.908;2023-11-19T15:11:29;4.24;82.22
71039;SHT30;58692;43.212;27.908;2023-11-19T15:13:55;4.22;82.64
71039;SHT30;58692;43.212;27.908;2023-11-19T15:16:20;4.24;82.43
71039;SHT30;58692;43.212;27.908;2023-11-19T15:18:51;4.21;82.63
71039;SHT30;58692;43.212;27.908;2023-11-19T15:21:17;4.22;82.64
71039;SHT30;58692;43.212;27.908;2023-11-19T15:23:43;4.22;82.73
71039;SHT30;58692;43.212;27.908;2023-11-19T15:26:09;4.19;82.60
71039;SHT30;58692;43.212;27.908;2023-11-19T15:28:36;4.22;82.83
71039;SHT30;58692;43.212;27.908;2023-11-19T15:31:02;4.22;82.78
71039;SHT30;58692;43.212;27.908;2023-11-19T15:33:28;4.21;82.50
71039;SHT30;58692;43.212;27.908;2023-11-19T15:35:53;4.22;83.05
71039;SHT30;58692;43.212;27.908;2023-11-19T15:38:19;4.26;82.87